createdAt,value
2023-11-21T00:02:22.295Z,86930.13
2023-11-21T00:05:15.174Z,86928.15
2023-11-21T00:08:01.496Z,86930.92
2023-11-21T00:10:47.441Z,86938.44
2023-11-21T00:13:34.154Z,86939.63
2023-11-21T00:16:20.403Z,86956.23
2023-11-21T00:19:06.746Z,86953.86
2023-11-21T00:21:52.616Z,86942.79
2023-11-21T00:24:38.776Z,86952.28
2023-11-21T00:27:24.616Z,86940.02
2023-11-21T00:30:11.149Z,86932.89
2023-11-21T00:32:57.761Z,86934.88
2023-11-21T00:35:44.117Z,86942.79
2023-11-21T00:38:30.119Z,86958.61
2023-11-21T00:41:17.945Z,86950.69
2023-11-21T00:44:04.087Z,86941.60
2023-11-21T00:46:51.826Z,86944.77
2023-11-21T00:49:40.625Z,86957.42
2023-11-21T00:52:27.252Z,86935.66
2023-11-21T00:55:13.441Z,86937.65
2023-11-21T00:58:00.912Z,86940.81
2023-11-21T01:00:46.809Z,86940.81
2023-11-21T01:03:33.251Z,86953.07
2023-11-21T01:06:20.854Z,86949.11
2023-11-21T01:09:09.715Z,86940.41
2023-11-21T01:11:55.828Z,86916.67
2023-11-21T01:14:41.995Z,86923.02
2023-11-21T01:17:28.475Z,86926.17
2023-11-21T01:20:15.376Z,86932.50
2023-11-21T01:23:01.642Z,86928.55
2023-11-21T01:25:47.975Z,86921.43
2023-11-21T01:28:34.101Z,86930.92
2023-11-21T01:31:21.680Z,86912.33
2023-11-21T01:34:08.342Z,86926.17
2023-11-21T01:36:54.764Z,86921.04
2023-11-21T01:39:41.335Z,86909.17
2023-11-21T01:42:28.147Z,86906.41
2023-11-21T01:45:15.993Z,86904.82
2023-11-21T01:48:04.480Z,86932.11
2023-11-21T01:50:50.933Z,86926.97
2023-11-21T01:53:37.896Z,86902.05
2023-11-21T01:56:24.775Z,86920.23
2023-11-21T01:59:11.564Z,86911.15
2023-11-21T02:01:57.866Z,86917.48
2023-11-21T02:04:44.827Z,86910.75
2023-11-21T02:07:31.326Z,86918.27
2023-11-21T02:10:18.338Z,86916.67
2023-11-21T02:13:05.448Z,86919.85
2023-11-21T02:15:53.580Z,86921.83
2023-11-21T02:18:40.931Z,86924.59
2023-11-21T02:21:28.558Z,86926.97
2023-11-21T02:24:14.572Z,86935.66
2023-11-21T02:27:01.251Z,86923.02
2023-11-21T02:29:47.436Z,86920.64
2023-11-21T02:32:33.410Z,86910.75
2023-11-21T02:35:19.445Z,86927.36
2023-11-21T02:38:05.310Z,86928.15
2023-11-21T02:40:51.418Z,86925.77
2023-11-21T02:43:37.287Z,86932.11
2023-11-21T02:46:23.316Z,86920.64
2023-11-21T02:49:11.419Z,86911.94
2023-11-21T02:51:57.755Z,86917.87
2023-11-21T02:54:43.955Z,86932.50
2023-11-21T02:57:30.204Z,86943.58
2023-11-21T03:00:16.743Z,86940.41
2023-11-21T03:03:02.744Z,86935.67
2023-11-21T03:05:48.939Z,86961.77
2023-11-21T03:08:35.803Z,86937.64
2023-11-21T03:11:22.633Z,86955.45
2023-11-21T03:14:08.733Z,86930.13
2023-11-21T03:16:54.566Z,86948.33
2023-11-21T03:19:45.478Z,86962.56
2023-11-21T03:22:31.659Z,86964.14
2023-11-21T03:25:19.037Z,86981.55
2023-11-21T03:28:05.378Z,86977.59
2023-11-21T03:30:51.640Z,86976.02
2023-11-21T03:33:37.551Z,86985.90
2023-11-21T03:36:23.532Z,86968.89
2023-11-21T03:39:09.491Z,86976.80
2023-11-21T03:41:55.538Z,86977.99
2023-11-21T03:44:41.997Z,86979.17
2023-11-21T03:47:29.337Z,86968.49
2023-11-21T03:50:15.547Z,86956.23
2023-11-21T03:53:03.466Z,86973.64
2023-11-21T03:55:51.216Z,86972.45
2023-11-21T03:58:37.471Z,86971.27
2023-11-21T04:01:24.298Z,86959.80
2023-11-21T04:04:10.421Z,86969.29
2023-11-21T04:06:57.470Z,86964.15
2023-11-21T04:09:43.327Z,86967.30
2023-11-21T04:12:29.281Z,86966.91
2023-11-21T04:15:15.599Z,86959.80
2023-11-21T04:18:01.902Z,86954.65
2023-11-21T04:20:50.068Z,86967.71
2023-11-21T04:23:36.832Z,86958.61
2023-11-21T04:26:22.937Z,86940.41
2023-11-21T04:29:09.014Z,86960.59
2023-11-21T04:31:54.955Z,86950.70
2023-11-21T04:34:40.884Z,86941.60
2023-11-21T04:37:27.536Z,86955.84
2023-11-21T04:40:13.501Z,86954.66
2023-11-21T04:42:59.722Z,86963.35
2023-11-21T04:45:45.699Z,86970.08
2023-11-21T04:48:32.053Z,86958.61
2023-11-21T04:51:18.865Z,86963.75
2023-11-21T04:54:06.914Z,86951.89
2023-11-21T04:56:52.915Z,86949.51
2023-11-21T04:59:39.106Z,86945.16
2023-11-21T05:02:33.604Z,86956.23
2023-11-21T05:05:22.067Z,86951.48
2023-11-21T05:08:07.888Z,86945.95
2023-11-21T05:10:54.703Z,86950.70
2023-11-21T05:13:40.968Z,86947.92
2023-11-21T05:16:28.967Z,86970.08
2023-11-21T05:19:15.338Z,86989.86
2023-11-21T05:22:01.823Z,86985.91
2023-11-21T05:24:48.076Z,86962.96
2023-11-21T05:27:34.369Z,86976.02
2023-11-21T05:30:20.599Z,86942.79
2023-11-21T05:33:06.934Z,86943.58
2023-11-21T05:35:53.568Z,86937.64
2023-11-21T05:38:40.074Z,86882.27
2023-11-21T05:41:26.941Z,86803.17
2023-11-21T05:44:15.552Z,86764.80
2023-11-21T05:47:01.947Z,86711.80
2023-11-21T05:49:51.600Z,86690.05
2023-11-21T05:52:38.579Z,86628.75
2023-11-21T05:55:27.212Z,86565.08
2023-11-21T05:58:15.035Z,86587.23
2023-11-21T06:01:01.321Z,86622.42
2023-11-21T06:03:47.307Z,86605.80
2023-11-21T06:06:33.693Z,86634.30
2023-11-21T06:09:20.332Z,86591.97
2023-11-21T06:12:06.986Z,86589.98
2023-11-21T06:14:52.986Z,86674.23
2023-11-21T06:17:39.257Z,86680.56
2023-11-21T06:20:25.524Z,86687.29
2023-11-21T06:23:12.051Z,86686.10
2023-11-21T06:25:58.479Z,86696.77
2023-11-21T06:28:44.972Z,86699.94
2023-11-21T06:31:31.538Z,86689.27
2023-11-21T06:34:17.555Z,86690.06
2023-11-21T06:37:03.575Z,86685.30
2023-11-21T06:39:53.356Z,86699.55
2023-11-21T06:42:39.724Z,86713.79
2023-11-21T06:45:25.697Z,86705.88
2023-11-21T06:48:12.005Z,86717.34
2023-11-21T06:50:58.604Z,86732.77
2023-11-21T06:53:45.987Z,86728.02
2023-11-21T06:56:32.259Z,86737.91
2023-11-21T06:59:18.091Z,86732.77
2023-11-21T07:02:06.072Z,86743.45
2023-11-21T07:04:52.493Z,86731.19
2023-11-21T07:07:39.893Z,86744.64
2023-11-21T07:10:26.100Z,86739.48
2023-11-21T07:13:13.714Z,86752.94
2023-11-21T07:16:00.743Z,86728.02
2023-11-21T07:18:47.436Z,86722.88
2023-11-21T07:21:37.553Z,86719.71
2023-11-21T07:24:27.733Z,86721.69
2023-11-21T07:27:14.090Z,86717.34
2023-11-21T07:30:00.168Z,86719.33
2023-11-21T07:32:49.151Z,86706.27
2023-11-21T07:35:35.376Z,86698.77
2023-11-21T07:38:21.900Z,86703.89
2023-11-21T07:41:19.252Z,86715.77
2023-11-21T07:44:12.209Z,86705.48
2023-11-21T07:46:59.020Z,86685.70
2023-11-21T07:49:46.162Z,86675.02
2023-11-21T07:52:32.923Z,86697.17
2023-11-21T07:55:19.302Z,86689.27
2023-11-21T07:58:05.644Z,86699.55
2023-11-21T08:00:52.084Z,86698.36
2023-11-21T08:03:38.478Z,86697.97
2023-11-21T08:06:26.874Z,86693.61
2023-11-21T08:09:13.734Z,86702.31
2023-11-21T08:12:01.852Z,86692.82
2023-11-21T08:14:48.352Z,86714.58
2023-11-21T08:17:34.598Z,86697.57
2023-11-21T08:20:21.315Z,86705.09
2023-11-21T08:23:07.777Z,86733.95
2023-11-21T08:25:55.030Z,86731.98
2023-11-21T08:28:41.637Z,86726.83
2023-11-21T08:31:28.029Z,86720.90
2023-11-21T08:34:15.616Z,86712.99
2023-11-21T08:37:01.757Z,86719.71
2023-11-21T08:39:49.563Z,86711.41
2023-11-21T08:42:35.572Z,86730.39
2023-11-21T08:45:23.570Z,86714.97
2023-11-21T08:48:09.916Z,86744.63
2023-11-21T08:50:56.208Z,86750.57
2023-11-21T08:53:42.335Z,86764.80
2023-11-21T08:56:28.412Z,86752.14
2023-11-21T08:59:15.616Z,86746.61
2023-11-21T09:02:02.096Z,86731.58
2023-11-21T09:04:48.728Z,86726.44
2023-11-21T09:07:35.152Z,86724.06
2023-11-21T09:10:22.017Z,86729.61
2023-11-21T09:13:11.391Z,86728.81
2023-11-21T09:15:57.560Z,86729.61
2023-11-21T09:18:44.234Z,86743.05
2023-11-21T09:21:30.515Z,86748.98
2023-11-21T09:24:16.587Z,86766.38
2023-11-21T09:27:02.617Z,86758.87
2023-11-21T09:29:48.962Z,86768.36
2023-11-21T09:32:36.389Z,86760.06
2023-11-21T09:35:22.833Z,86759.27
2023-11-21T09:38:12.308Z,86749.77
2023-11-21T09:40:59.486Z,86735.93
2023-11-21T09:43:48.620Z,86743.45
2023-11-21T09:46:34.840Z,86758.08
2023-11-21T09:49:26.564Z,86775.48
2023-11-21T09:52:19.415Z,86775.08
2023-11-21T09:55:07.018Z,86766.78
2023-11-21T09:57:55.413Z,86746.21
2023-11-21T10:00:47.937Z,86750.17
2023-11-21T10:03:37.981Z,86754.91
2023-11-21T10:06:27.919Z,86772.32
2023-11-21T10:09:15.396Z,86790.52
2023-11-21T10:12:04.406Z,86781.02
2023-11-21T10:14:53.738Z,86794.46
2023-11-21T10:17:44.626Z,86772.32
2023-11-21T10:20:31.844Z,86773.90
2023-11-21T10:23:18.702Z,86793.68
2023-11-21T10:26:11.312Z,86779.05
2023-11-21T10:29:06.344Z,86783.39
2023-11-21T10:31:54.115Z,86777.45
2023-11-21T10:34:42.573Z,86775.48
2023-11-21T10:37:29.218Z,86773.50
2023-11-21T10:40:15.950Z,86781.42
2023-11-21T10:43:12.037Z,86747.40
2023-11-21T10:46:01.047Z,86745.82
2023-11-21T10:48:47.897Z,86762.04
2023-11-21T10:51:34.377Z,86758.08
2023-11-21T10:54:29.872Z,86748.19
2023-11-21T10:57:20.471Z,86751.36
2023-11-21T11:00:07.934Z,86729.21
2023-11-21T11:02:57.924Z,86735.54
2023-11-21T11:05:53.771Z,86735.93
2023-11-21T11:08:41.261Z,86748.59
2023-11-21T11:11:27.807Z,86744.23
2023-11-21T11:14:15.241Z,86752.94
2023-11-21T11:17:03.327Z,86740.28
2023-11-21T11:19:50.362Z,86749.38
2023-11-21T11:22:46.885Z,86757.29
2023-11-21T11:26:06.761Z,86767.96
2023-11-21T11:29:12.731Z,86764.02
2023-11-21T11:32:17.962Z,86790.91
2023-11-21T11:35:18.408Z,86773.50
2023-11-21T11:38:05.007Z,86777.06
2023-11-21T11:40:55.372Z,86776.67
2023-11-21T11:43:45.527Z,86777.85
2023-11-21T11:46:49.058Z,86789.33
2023-11-21T11:49:35.663Z,86775.09
2023-11-21T11:52:45.675Z,86771.92
2023-11-21T11:55:32.118Z,86770.35
2023-11-21T11:58:18.711Z,86793.27
2023-11-21T12:01:08.851Z,86808.70
2023-11-21T12:04:24.371Z,86806.73
2023-11-21T12:07:14.961Z,86792.10
2023-11-21T12:10:01.289Z,86799.21
2023-11-21T12:12:55.565Z,86802.77
2023-11-21T12:15:43.378Z,86804.75
2023-11-21T12:18:29.954Z,86805.54
2023-11-21T12:21:17.643Z,86810.69
2023-11-21T12:24:04.359Z,86797.64
2023-11-21T12:26:50.644Z,86802.38
2023-11-21T12:29:39.001Z,86825.31
2023-11-21T12:32:26.752Z,86798.02
2023-11-21T12:35:13.713Z,86811.08
2023-11-21T12:38:00.819Z,86805.54
2023-11-21T12:40:48.609Z,86819.39
2023-11-21T12:43:36.416Z,86813.84
2023-11-21T12:46:22.937Z,86803.96
2023-11-21T12:49:09.498Z,86818.20
2023-11-21T12:51:56.082Z,86811.08
2023-11-21T12:54:42.744Z,86815.83
2023-11-21T12:57:29.359Z,86806.33
2023-11-21T13:00:28.332Z,86813.85
2023-11-21T13:03:18.388Z,86819.39
2023-11-21T13:06:06.238Z,86807.52
2023-11-21T13:08:53.358Z,86820.57
2023-11-21T13:11:42.045Z,86820.58
2023-11-21T13:14:33.205Z,86843.91
2023-11-21T13:17:20.179Z,86828.48
2023-11-21T13:20:11.259Z,86837.98
2023-11-21T13:23:00.357Z,86830.07
2023-11-21T13:25:54.722Z,86826.50
2023-11-21T13:28:48.601Z,86826.50
2023-11-21T13:31:37.885Z,86825.71
2023-11-21T13:37:15.139Z,86832.44
2023-11-21T13:40:01.207Z,86832.44
2023-11-21T13:42:47.274Z,86826.11
2023-11-21T13:45:33.906Z,86812.66
2023-11-21T13:48:23.578Z,86814.24
2023-11-21T13:51:18.889Z,86818.98
2023-11-21T13:54:10.401Z,86800.40
2023-11-21T13:56:57.255Z,86792.10
2023-11-21T13:59:45.238Z,86794.08
2023-11-21T14:02:38.793Z,86795.65
2023-11-21T14:05:30.519Z,86798.02
2023-11-21T14:08:21.189Z,86788.53
2023-11-21T14:11:08.165Z,86799.61
2023-11-21T14:13:55.099Z,86812.66
2023-11-21T14:16:41.447Z,86796.84
2023-11-21T14:19:33.835Z,86786.95
2023-11-21T14:22:21.870Z,86811.08
2023-11-21T14:25:08.380Z,86834.02
2023-11-21T14:27:54.971Z,86837.19
2023-11-21T14:30:42.345Z,86849.05
2023-11-21T14:33:28.884Z,86837.98
2023-11-21T14:36:18.378Z,86838.37
2023-11-21T14:39:10.460Z,86824.92
2023-11-21T14:41:57.910Z,86835.98
2023-11-21T14:44:44.887Z,86846.27
2023-11-21T14:47:31.145Z,86832.84
2023-11-21T14:50:36.364Z,86858.14
2023-11-21T14:53:42.682Z,86864.87
2023-11-21T14:56:34.320Z,86865.27
2023-11-21T14:59:20.527Z,86846.67
2023-11-21T15:02:16.815Z,86868.04
2023-11-21T15:05:03.747Z,86854.19
2023-11-21T15:07:51.013Z,86864.48
2023-11-21T15:10:47.486Z,86871.19
2023-11-21T15:13:34.254Z,86853.80
2023-11-21T15:16:20.788Z,86875.15
2023-11-21T15:19:08.414Z,86848.25
2023-11-21T15:21:54.805Z,86871.20
2023-11-21T15:24:42.993Z,86862.10
2023-11-21T15:27:29.567Z,86863.68
2023-11-21T15:30:17.034Z,86856.96
2023-11-21T15:33:05.059Z,86869.23
2023-11-21T15:35:52.238Z,86867.64
2023-11-21T15:38:41.146Z,86861.70
2023-11-21T15:41:27.554Z,86853.40
2023-11-21T15:44:15.210Z,86862.10
2023-11-21T15:47:01.822Z,86846.27
2023-11-21T15:49:51.088Z,86854.59
2023-11-21T15:52:39.013Z,86841.14
2023-11-21T15:55:44.016Z,86858.94
2023-11-21T15:58:30.930Z,86870.02
2023-11-21T16:01:17.034Z,86860.52
2023-11-21T16:04:04.434Z,86850.23
2023-11-21T16:06:51.015Z,86867.64
2023-11-21T16:09:39.210Z,86864.08
2023-11-21T16:12:25.424Z,86860.13
2023-11-21T16:15:13.208Z,86857.35
2023-11-21T16:17:59.588Z,86856.56
2023-11-21T16:20:45.624Z,86854.59
2023-11-21T16:23:32.632Z,86853.01
2023-11-21T16:26:19.474Z,86850.23
2023-11-21T16:29:05.938Z,86842.71
2023-11-21T16:31:53.540Z,86841.14
2023-11-21T16:34:41.560Z,86853.79
2023-11-21T16:37:28.277Z,86847.46
2023-11-21T16:40:14.417Z,86835.60
2023-11-21T16:43:00.764Z,86834.02
2023-11-21T16:45:52.920Z,86839.55
2023-11-21T16:48:39.546Z,86843.91
2023-11-21T16:51:25.526Z,86827.69
2023-11-21T16:54:11.874Z,86830.06
2023-11-21T16:56:58.198Z,86832.43
2023-11-21T16:59:44.296Z,86816.61
2023-11-21T17:02:30.539Z,86838.77
2023-11-21T17:05:17.025Z,86841.53
2023-11-21T17:08:05.744Z,86853.79
2023-11-21T17:10:51.957Z,86870.02
2023-11-21T17:13:38.032Z,86867.23
2023-11-21T17:16:24.176Z,86849.84
2023-11-21T17:19:10.689Z,86851.42
2023-11-21T17:21:58.425Z,86844.70
2023-11-21T17:24:45.722Z,86870.01
2023-11-21T17:27:32.122Z,86851.82
2023-11-21T17:30:19.272Z,86849.45
2023-11-21T17:33:05.698Z,86840.75
2023-11-21T17:35:52.289Z,86845.09
2023-11-21T17:38:39.286Z,86836.00
2023-11-21T17:41:26.121Z,86833.63
2023-11-21T17:44:13.748Z,86842.73
2023-11-21T17:47:00.213Z,86849.05
2023-11-21T17:49:46.913Z,86838.77
2023-11-21T17:52:33.393Z,86828.09
2023-11-21T17:55:19.546Z,86824.52
2023-11-21T17:58:06.074Z,86827.30
2023-11-21T18:00:52.366Z,86825.71
2023-11-21T18:03:41.469Z,86817.41
2023-11-21T18:06:27.858Z,86805.94
2023-11-21T18:09:16.600Z,86809.50
2023-11-21T18:12:03.404Z,86839.55
2023-11-21T18:14:51.670Z,86831.65
2023-11-21T18:17:38.270Z,86853.00
2023-11-21T18:20:25.397Z,86862.50
2023-11-21T18:23:11.821Z,86868.03
2023-11-21T18:25:58.071Z,86872.39
2023-11-21T18:28:44.873Z,86883.06
2023-11-21T18:31:31.723Z,86881.09
2023-11-21T18:34:17.865Z,86882.27
2023-11-21T18:37:04.199Z,86878.32
2023-11-21T18:39:50.375Z,86878.33
2023-11-21T18:42:36.897Z,86873.58
2023-11-21T18:45:23.530Z,86872.78
2023-11-21T18:48:12.385Z,86890.19
2023-11-21T18:50:58.824Z,86879.90
2023-11-21T18:53:45.017Z,86877.52
2023-11-21T18:56:32.262Z,86888.99
2023-11-21T18:59:22.023Z,86891.36
2023-11-21T19:02:14.017Z,86880.70
2023-11-21T19:05:04.274Z,86881.08
2023-11-21T19:07:51.564Z,86869.23
2023-11-21T19:10:38.555Z,86867.25
2023-11-21T19:13:25.535Z,86870.02
2023-11-21T19:16:15.206Z,86864.86
2023-11-21T19:19:02.647Z,86875.55
2023-11-21T19:21:49.778Z,86860.91
2023-11-21T19:24:35.791Z,86839.55
2023-11-21T19:27:22.069Z,86854.19
2023-11-21T19:30:12.252Z,86870.80
2023-11-21T19:33:00.615Z,86870.41
2023-11-21T19:35:46.791Z,86873.57
2023-11-21T19:38:35.111Z,86856.16
2023-11-21T19:41:22.927Z,86848.27
2023-11-21T19:44:09.872Z,86855.77
2023-11-21T19:46:56.911Z,86852.21
2023-11-21T19:49:43.457Z,86871.59
2023-11-21T19:52:30.230Z,86856.17
2023-11-21T19:55:17.907Z,86856.17
2023-11-21T19:58:04.804Z,86860.52
2023-11-21T20:00:51.949Z,86864.87
2023-11-21T20:03:39.953Z,86860.52
2023-11-21T20:06:26.385Z,86851.81
2023-11-21T20:09:12.688Z,86849.84
2023-11-21T20:11:59.691Z,86847.08
2023-11-21T20:14:49.493Z,86827.69
2023-11-21T20:17:35.925Z,86848.27
2023-11-21T20:20:22.518Z,86816.61
2023-11-21T20:23:08.560Z,86813.45
2023-11-21T20:25:59.268Z,86811.08
2023-11-21T20:28:46.897Z,86811.88
2023-11-21T20:31:33.230Z,86818.59
2023-11-21T20:34:20.914Z,86810.29
2023-11-21T20:37:07.856Z,86817.80
2023-11-21T20:39:54.100Z,86815.43
2023-11-21T20:42:43.440Z,86822.94
2023-11-21T20:45:31.260Z,86820.96
2023-11-21T20:48:17.845Z,86822.55
2023-11-21T20:51:05.298Z,86829.27
2023-11-21T20:53:51.575Z,86847.86
2023-11-21T20:56:38.138Z,86840.73
2023-11-21T20:59:24.484Z,86834.41
2023-11-21T21:02:11.180Z,86843.90
2023-11-21T21:04:57.995Z,86853.40
2023-11-21T21:07:44.328Z,86851.83
2023-11-21T21:10:30.714Z,86837.97
2023-11-21T21:13:18.887Z,86830.45
2023-11-21T21:16:05.537Z,86829.27
2023-11-21T21:18:53.494Z,86839.16
2023-11-21T21:21:40.072Z,86818.98
2023-11-21T21:24:26.251Z,86820.17
2023-11-21T21:27:12.201Z,86816.61
2023-11-21T21:29:58.564Z,86825.71
2023-11-21T21:32:44.853Z,86814.23
2023-11-21T21:35:31.011Z,86824.52
2023-11-21T21:38:17.642Z,86802.38
2023-11-21T21:43:47.120Z,88196.98
2023-11-21T21:46:34.582Z,86812.27
2023-11-21T21:49:21.592Z,86822.55
2023-11-21T21:52:07.865Z,86817.40
2023-11-21T21:54:54.521Z,86834.41
2023-11-21T21:57:42.424Z,86822.95
2023-11-21T22:00:29.010Z,86806.73
2023-11-21T22:03:16.389Z,86808.31
2023-11-21T22:06:03.022Z,86805.14
2023-11-21T22:08:49.627Z,86814.64
2023-11-21T22:11:36.493Z,86794.86
2023-11-21T22:14:24.205Z,86818.59
2023-11-21T22:17:11.419Z,86798.42
2023-11-21T22:19:57.887Z,86800.40
2023-11-21T22:22:44.351Z,86807.13
2023-11-21T22:25:30.546Z,86803.17
2023-11-21T22:28:17.265Z,86798.03
2023-11-21T22:31:03.736Z,86803.95
2023-11-21T22:33:49.919Z,86789.73
2023-11-21T22:36:36.057Z,86811.87
2023-11-21T22:39:22.440Z,86813.85
2023-11-21T22:42:09.410Z,86805.94
2023-11-21T22:44:55.980Z,86804.36
2023-11-21T22:47:42.699Z,86811.08
2023-11-21T22:50:29.304Z,86814.64
2023-11-21T22:53:16.113Z,86806.73
2023-11-21T22:56:03.008Z,86798.02
2023-11-21T22:58:50.066Z,86796.45
2023-11-21T23:01:36.612Z,86808.31
2023-11-21T23:04:23.129Z,86796.45
2023-11-21T23:07:10.538Z,86791.70
2023-11-21T23:09:56.970Z,86795.25
2023-11-21T23:12:43.130Z,86800.00
2023-11-21T23:15:29.466Z,86804.75
2023-11-21T23:18:16.076Z,86788.94
2023-11-21T23:21:02.967Z,86794.46
2023-11-21T23:23:49.226Z,86789.33
2023-11-21T23:26:35.960Z,86796.84
2023-11-21T23:29:24.410Z,86806.33
2023-11-21T23:32:13.124Z,86811.88
2023-11-21T23:35:00.525Z,86817.41
2023-11-21T23:37:46.969Z,86804.75
2023-11-21T23:40:34.203Z,86816.23
2023-11-21T23:43:20.705Z,86825.31
2023-11-21T23:46:07.243Z,86820.58
2023-11-21T23:48:54.907Z,86826.51
2023-11-21T23:51:41.671Z,86809.10
2023-11-21T23:54:28.126Z,86832.05
2023-11-21T23:57:14.426Z,86819.77
